Norton, KS

8:55 AM CST on February 12, 2016 (GMT -0600)
NonFedAWOS | | Change Station
CLOSE
Current Station
Personal Weather Station
Location: Norton, KS
Elevation: 2382 ft
Nearby Weather Stations

Elev 2382 ft 39.85 °N, 99.89 °W | Updated 15 minutes ago

Partly Cloudy
Partly Cloudy
28 °F
Feels Like 28 °F
N
3
Wind Variable Wind from NNW
Gusts 0.0 mph

Today
High -- | Low -- °F
--% Chance of Precip.
Yesterday
High -- | Low -- °F
Precip. -- in
Pressure 30.46 in
Visibility 7.0 miles
Clouds Clear
Windchill 28 °F
Dew Point 25 °F
Humidity 86%
Rainfall in
Snow Depth Not available.
7:36 AM 6:11 PM
Waxing Crescent, 21% visible
METAR KHLC 121453Z AUTO 02003KT 7SM CLR 01/M02 A3040 RMK AO2 SLP314 T00061017 53023
Pressure 30.46 in
Visibility 7.0 miles
Clouds Clear
Windchill 28 °F
Dew Point 25 °F
Humidity 86%
Rainfall in
Snow Depth Not available.
7:36 AM 6:11 PM
Waxing Crescent, 21% visible
METAR KHLC 121453Z AUTO 02003KT 7SM CLR 01/M02 A3040 RMK AO2 SLP314 T00061017 53023

10-Day Weather Forecast

Almanac

Astronomy

Feb. 12, 2016 Rise Set
Actual Time
Civil Twilight
Nautical Twilight
Astronomical Twilight
Moon
Length of Visible Light
Length of Day
Tomorrow will be .
, % of the Moon is Illuminated

Today's Extremes

State Highs State Lows

Community

WunderPhotos

Upload Photos

1,892,318 photos uploaded!

WunderBlog® & News

Nearby

Air Quality

  Air Quality AQ Index Pollutant
Not available.

Snow Depth

Station Depth Elevation

Earthquake Activity

City Distance Mag. Time & Date
Minimum magnitude displayed is 2.5.

Coastal Water Temperatures

Place Temperature

Stations

Nearby Weather Stations

Station Location Temp. Windchill Dew Point Humidity Wind Precip. Elev Updated Type
                   

Watches & Warnings

There are currently no watches in effect.